createdAt,value
2023-01-12T00:02:07.444Z,9.47
2023-01-12T00:04:35.735Z,9.51
2023-01-12T00:07:04.347Z,9.55
2023-01-12T00:09:32.187Z,9.56
2023-01-12T00:12:00.406Z,9.43
2023-01-12T00:14:29.440Z,9.57
2023-01-12T00:16:58.703Z,9.56
2023-01-12T00:19:26.546Z,9.62
2023-01-12T00:22:02.372Z,9.64
2023-01-12T00:24:33.878Z,9.64
2023-01-12T00:27:04.188Z,9.62
2023-01-12T00:29:32.419Z,9.58
2023-01-12T00:32:01.880Z,9.68
2023-01-12T00:34:30.337Z,9.68
2023-01-12T00:37:00.589Z,9.64
2023-01-12T00:39:28.610Z,9.69
2023-01-12T00:42:14.282Z,9.75
2023-01-12T00:44:59.588Z,9.61
2023-01-12T00:47:28.903Z,9.53
2023-01-12T00:49:56.797Z,9.45
2023-01-12T00:52:30.905Z,9.46
2023-01-12T00:54:59.911Z,9.48
2023-01-12T00:57:28.282Z,9.59
2023-01-12T00:59:58.250Z,9.55
2023-01-12T01:02:29.883Z,9.62
2023-01-12T01:04:57.849Z,9.68
2023-01-12T01:07:25.899Z,9.57
2023-01-12T01:09:53.966Z,9.67
2023-01-12T01:12:22.165Z,9.64
2023-01-12T01:14:50.021Z,9.64
2023-01-12T01:17:18.147Z,9.64
2023-01-12T01:19:48.304Z,9.53
2023-01-12T01:22:16.193Z,9.46
2023-01-12T01:24:44.056Z,9.53
2023-01-12T01:27:12.191Z,9.58
2023-01-12T01:29:40.146Z,9.60
2023-01-12T01:32:08.646Z,9.67
2023-01-12T01:34:37.185Z,9.58
2023-01-12T01:37:06.432Z,9.58
2023-01-12T01:39:34.372Z,9.53
2023-01-12T01:42:02.172Z,9.51
2023-01-12T01:44:53.981Z,9.63
2023-01-12T01:47:29.479Z,9.75
2023-01-12T01:49:59.781Z,9.77
2023-01-12T01:52:33.650Z,9.86
2023-01-12T01:55:07.680Z,9.81
2023-01-12T01:57:41.565Z,9.87
2023-01-12T02:00:11.806Z,9.86
2023-01-12T02:02:40.522Z,9.86
2023-01-12T02:05:09.721Z,9.91
2023-01-12T02:07:39.824Z,9.93
2023-01-12T02:10:08.173Z,9.90
2023-01-12T02:12:53.665Z,9.90
2023-01-12T02:15:42.999Z,9.94
2023-01-12T02:18:20.135Z,10.06
2023-01-12T02:20:55.516Z,10.05
2023-01-12T02:23:50.441Z,10.04
2023-01-12T02:26:45.153Z,10.05
2023-01-12T02:30:00.479Z,10.07
2023-01-12T02:32:35.767Z,10.00
2023-01-12T02:35:14.343Z,9.96
2023-01-12T02:37:47.111Z,9.93
2023-01-12T02:40:24.750Z,9.97
2023-01-12T02:43:02.738Z,10.09
2023-01-12T02:45:42.911Z,10.13
2023-01-12T02:48:17.749Z,10.10
2023-01-12T02:50:52.553Z,10.16
2023-01-12T02:53:25.511Z,10.19
2023-01-12T02:55:54.614Z,10.14
2023-01-12T02:58:25.780Z,10.17
2023-01-12T03:00:57.602Z,10.24
2023-01-12T03:03:27.659Z,10.26
2023-01-12T03:05:56.908Z,10.19
2023-01-12T03:08:28.760Z,10.14
2023-01-12T03:11:06.558Z,10.26
2023-01-12T03:13:38.553Z,10.21
2023-01-12T03:16:10.123Z,10.14
2023-01-12T03:18:44.354Z,10.08
2023-01-12T03:21:18.153Z,10.08
2023-01-12T03:23:48.759Z,9.90
2023-01-12T03:26:23.247Z,9.89
2023-01-12T03:28:56.268Z,9.84
2023-01-12T03:31:25.652Z,9.75
2023-01-12T03:33:57.056Z,9.83
2023-01-12T03:36:36.495Z,9.98
2023-01-12T03:39:14.089Z,9.96
2023-01-12T03:41:53.237Z,10.04
2023-01-12T03:44:28.523Z,10.00
2023-01-12T03:47:01.004Z,10.03
2023-01-12T03:49:36.302Z,9.94
2023-01-12T03:52:08.249Z,9.86
2023-01-12T03:54:39.700Z,9.97
2023-01-12T03:57:10.010Z,9.90
2023-01-12T03:59:38.102Z,9.83
2023-01-12T04:02:06.171Z,9.96
2023-01-12T04:04:35.644Z,9.79
2023-01-12T04:07:03.649Z,9.82
2023-01-12T04:09:31.786Z,9.86
2023-01-12T04:12:11.556Z,9.92
2023-01-12T04:14:40.164Z,9.99
2023-01-12T04:17:09.036Z,10.12
2023-01-12T04:19:38.826Z,10.11
2023-01-12T04:22:24.691Z,10.06
2023-01-12T04:24:52.939Z,9.94
2023-01-12T04:27:20.908Z,10.02
2023-01-12T04:29:49.130Z,9.96
2023-01-12T04:32:17.231Z,10.03
2023-01-12T04:34:47.201Z,10.07
2023-01-12T04:37:15.369Z,10.07
2023-01-12T04:39:43.397Z,10.08
2023-01-12T04:42:31.413Z,10.12
2023-01-12T04:44:59.301Z,10.08
2023-01-12T04:47:27.149Z,10.14
2023-01-12T04:49:56.853Z,10.14
2023-01-12T04:52:24.858Z,10.16
2023-01-12T04:54:52.751Z,10.14
2023-01-12T04:57:20.738Z,10.28
2023-01-12T04:59:48.781Z,10.35
2023-01-12T05:02:16.855Z,10.30
2023-01-12T05:04:44.815Z,10.26
2023-01-12T05:07:14.162Z,10.24
2023-01-12T05:09:59.563Z,10.14
2023-01-12T05:12:27.450Z,10.29
2023-01-12T05:14:55.328Z,10.25
2023-01-12T05:17:23.305Z,10.26
2023-01-12T05:19:51.156Z,10.27
2023-01-12T05:22:20.456Z,10.26
2023-01-12T05:24:48.438Z,10.25
2023-01-12T05:27:18.359Z,10.30
2023-01-12T05:29:46.187Z,10.26
2023-01-12T05:32:14.148Z,10.30
2023-01-12T05:34:42.607Z,10.21
2023-01-12T05:37:10.476Z,10.23
2023-01-12T05:39:39.869Z,10.23
2023-01-12T05:42:25.104Z,10.25
2023-01-12T05:44:53.072Z,10.20
2023-01-12T05:47:20.961Z,10.22
2023-01-12T05:49:48.804Z,10.23
2023-01-12T05:52:16.726Z,10.15
2023-01-12T05:54:45.977Z,10.24
2023-01-12T05:57:13.841Z,10.26
2023-01-12T05:59:41.727Z,10.14
2023-01-12T06:02:12.166Z,10.12
2023-01-12T06:04:40.226Z,10.09
2023-01-12T06:07:08.208Z,10.18
2023-01-12T06:09:36.488Z,10.28
2023-01-12T06:12:23.740Z,10.26
2023-01-12T06:14:51.563Z,10.23
2023-01-12T06:17:19.424Z,10.12
2023-01-12T06:19:47.369Z,10.14
2023-01-12T06:22:15.210Z,10.07
2023-01-12T06:24:43.117Z,10.11
2023-01-12T06:27:12.616Z,10.20
2023-01-12T06:29:40.452Z,10.25
2023-01-12T06:32:08.654Z,10.36
2023-01-12T06:34:36.802Z,10.35
2023-01-12T06:37:05.147Z,10.23
2023-01-12T06:39:33.033Z,10.22
2023-01-12T06:42:18.898Z,10.25
2023-01-12T06:44:48.953Z,10.26
2023-01-12T06:47:16.995Z,10.14
2023-01-12T06:49:45.001Z,10.11
2023-01-12T06:52:13.059Z,10.03
2023-01-12T06:54:41.214Z,9.99
2023-01-12T06:57:09.104Z,10.01
2023-01-12T06:59:38.909Z,10.02
2023-01-12T07:02:11.092Z,10.02
2023-01-12T07:04:39.209Z,10.16
2023-01-12T07:07:09.564Z,10.25
2023-01-12T07:09:38.187Z,10.34
2023-01-12T07:12:06.676Z,10.25
2023-01-12T07:14:34.923Z,10.26
2023-01-12T07:17:03.696Z,10.22
2023-01-12T07:19:32.940Z,10.27
2023-01-12T07:22:01.118Z,10.24
2023-01-12T07:24:29.084Z,10.19
2023-01-12T07:26:58.621Z,10.10
2023-01-12T07:29:26.519Z,10.10
2023-01-12T07:31:55.142Z,10.03
2023-01-12T07:34:23.326Z,10.12
2023-01-12T07:36:52.845Z,10.16
2023-01-12T07:39:21.269Z,10.20
2023-01-12T07:42:07.389Z,10.28
2023-01-12T07:44:37.776Z,10.24
2023-01-12T07:47:05.852Z,10.16
2023-01-12T07:49:33.742Z,10.12
2023-01-12T07:52:03.153Z,10.09
2023-01-12T07:54:33.751Z,10.21
2023-01-12T07:57:01.672Z,10.33
2023-01-12T07:59:30.903Z,10.22
2023-01-12T08:01:59.944Z,10.21
2023-01-12T08:04:27.993Z,10.29
2023-01-12T08:06:56.029Z,10.12
2023-01-12T08:09:25.699Z,10.10
2023-01-12T08:11:56.519Z,10.11
2023-01-12T08:14:29.130Z,10.00
2023-01-12T08:17:01.678Z,10.05
2023-01-12T08:19:37.230Z,9.97
2023-01-12T08:22:09.244Z,9.92
2023-01-12T08:24:44.948Z,9.78
2023-01-12T08:27:13.206Z,9.86
2023-01-12T08:29:46.235Z,9.94
2023-01-12T08:32:18.000Z,9.91
2023-01-12T08:34:50.637Z,9.96
2023-01-12T08:37:22.812Z,9.96
2023-01-12T08:39:54.117Z,10.09
2023-01-12T08:42:25.137Z,10.11
2023-01-12T08:44:54.296Z,10.00
2023-01-12T08:47:27.116Z,10.01
2023-01-12T08:49:55.311Z,9.98
2023-01-12T08:52:23.200Z,9.96
2023-01-12T08:54:52.723Z,9.97
2023-01-12T08:57:20.753Z,10.03
2023-01-12T08:59:48.758Z,10.01
2023-01-12T09:02:17.186Z,9.79
2023-01-12T09:04:45.683Z,9.76
2023-01-12T09:07:14.174Z,9.88
2023-01-12T09:09:42.235Z,9.91
2023-01-12T09:12:11.645Z,9.88
2023-01-12T09:14:39.685Z,9.81
2023-01-12T09:17:08.422Z,9.95
2023-01-12T09:19:36.462Z,9.91
2023-01-12T09:22:04.420Z,9.95
2023-01-12T09:24:32.470Z,9.92
2023-01-12T09:27:01.658Z,9.95
2023-01-12T09:29:30.945Z,9.90
2023-01-12T09:31:59.010Z,10.02
2023-01-12T09:34:27.045Z,10.15
2023-01-12T09:36:56.707Z,10.00
2023-01-12T09:39:28.665Z,10.05
2023-01-12T09:42:18.095Z,10.14
2023-01-12T09:45:07.889Z,10.09
2023-01-12T09:47:40.194Z,10.11
2023-01-12T09:50:11.857Z,10.27
2023-01-12T09:52:45.747Z,10.23
2023-01-12T09:55:18.125Z,10.30
2023-01-12T09:58:16.614Z,10.33
2023-01-12T10:00:50.984Z,10.41
2023-01-12T10:03:29.402Z,10.57
2023-01-12T10:06:00.468Z,10.55
2023-01-12T10:08:37.284Z,10.61
2023-01-12T10:11:16.433Z,10.49
2023-01-12T10:14:10.067Z,10.66
2023-01-12T10:16:46.929Z,10.61
2023-01-12T10:19:23.650Z,10.65
2023-01-12T10:21:53.525Z,10.61
2023-01-12T10:24:23.801Z,10.61
2023-01-12T10:26:57.128Z,10.67
2023-01-12T10:29:25.409Z,10.62
2023-01-12T10:31:54.693Z,10.63
2023-01-12T10:34:22.680Z,10.69
2023-01-12T10:36:55.742Z,10.65
2023-01-12T10:39:31.955Z,10.61
2023-01-12T10:42:31.306Z,10.63
2023-01-12T10:45:14.474Z,10.68
2023-01-12T10:47:45.183Z,10.77
2023-01-12T10:50:22.497Z,10.69
2023-01-12T10:52:54.877Z,10.79
2023-01-12T10:55:24.754Z,10.96
2023-01-12T10:57:54.260Z,10.92
2023-01-12T11:00:26.206Z,10.82
2023-01-12T11:02:56.491Z,10.95
2023-01-12T11:05:31.951Z,10.84
2023-01-12T11:08:00.437Z,10.79
2023-01-12T11:10:31.864Z,10.86
2023-01-12T11:13:03.628Z,10.94
2023-01-12T11:15:35.727Z,10.95
2023-01-12T11:18:29.807Z,11.01
2023-01-12T11:21:03.101Z,11.08
2023-01-12T11:23:38.870Z,11.19
2023-01-12T11:26:18.554Z,11.29
2023-01-12T11:28:50.033Z,11.28
2023-01-12T11:31:22.407Z,11.33
2023-01-12T11:33:58.813Z,11.33
2023-01-12T11:36:30.384Z,11.30
2023-01-12T11:39:04.321Z,11.45
2023-01-12T11:41:39.416Z,11.35
2023-01-12T11:44:16.441Z,11.42
2023-01-12T11:46:51.879Z,11.40
2023-01-12T11:49:28.316Z,11.29
2023-01-12T11:51:59.352Z,11.37
2023-01-12T11:54:29.502Z,11.39
2023-01-12T11:57:12.596Z,11.39
2023-01-12T11:59:49.806Z,11.44
2023-01-12T12:02:33.069Z,11.54
2023-01-12T12:05:16.251Z,11.55
2023-01-12T12:07:58.859Z,11.56
2023-01-12T12:10:34.952Z,11.54
2023-01-12T12:13:20.269Z,11.59
2023-01-12T12:15:57.037Z,11.68
2023-01-12T12:18:37.137Z,11.79
2023-01-12T12:21:18.688Z,11.73
2023-01-12T12:24:00.207Z,11.79
2023-01-12T12:26:31.996Z,11.72
2023-01-12T12:29:26.094Z,11.75
2023-01-12T12:32:03.457Z,11.75
2023-01-12T12:35:18.951Z,11.85
2023-01-12T12:37:58.018Z,11.97
2023-01-12T12:40:57.254Z,11.85
2023-01-12T12:43:48.808Z,11.78
2023-01-12T12:46:24.243Z,11.92
2023-01-12T12:49:01.795Z,11.94
2023-01-12T12:51:32.676Z,12.03
2023-01-12T12:54:06.690Z,12.06
2023-01-12T12:56:36.745Z,11.88
2023-01-12T12:59:05.499Z,11.85
2023-01-12T13:01:42.540Z,11.86
2023-01-12T13:04:12.737Z,11.94
2023-01-12T13:06:47.572Z,12.01
2023-01-12T13:09:38.477Z,12.08
2023-01-12T13:12:33.390Z,12.12
2023-01-12T13:15:29.377Z,12.17
2023-01-12T13:17:57.426Z,12.21
2023-01-12T13:20:38.650Z,12.26
2023-01-12T13:23:46.987Z,12.39
2023-01-12T13:26:42.015Z,12.46
2023-01-12T13:29:52.301Z,12.45
2023-01-12T13:32:41.721Z,12.63
2023-01-12T13:35:55.859Z,12.58
2023-01-12T13:38:38.619Z,12.54
2023-01-12T13:41:38.846Z,12.61
2023-01-12T13:44:10.360Z,12.67
2023-01-12T13:46:44.501Z,12.68
2023-01-12T13:49:34.785Z,12.73
2023-01-12T13:52:05.821Z,12.84
2023-01-12T13:54:34.907Z,12.84
2023-01-12T13:57:10.789Z,12.94
2023-01-12T13:59:40.007Z,12.83
2023-01-12T14:02:19.105Z,12.81
2023-01-12T14:05:05.422Z,12.88
2023-01-12T14:08:00.051Z,12.96
2023-01-12T14:10:39.099Z,13.03
2023-01-12T14:13:38.807Z,13.11
2023-01-12T14:16:30.147Z,13.16
2023-01-12T14:18:58.187Z,13.05
2023-01-12T14:21:30.116Z,13.03
2023-01-12T14:24:15.963Z,13.09
2023-01-12T14:26:44.344Z,13.12
2023-01-12T14:29:12.846Z,13.15
2023-01-12T14:31:45.413Z,13.10
2023-01-12T14:34:28.252Z,13.04
2023-01-12T14:36:56.829Z,13.09
2023-01-12T14:39:28.959Z,13.05
2023-01-12T14:42:15.243Z,13.08
2023-01-12T14:45:08.085Z,13.05
2023-01-12T14:47:37.866Z,13.05
2023-01-12T14:50:18.375Z,13.08
2023-01-12T14:52:47.877Z,13.11
2023-01-12T14:55:17.942Z,13.14
2023-01-12T14:57:50.144Z,13.18
2023-01-12T15:00:22.608Z,13.16
2023-01-12T15:02:53.452Z,13.17
2023-01-12T15:05:25.432Z,13.20
2023-01-12T15:07:59.197Z,13.19
2023-01-12T15:10:30.625Z,13.21
2023-01-12T15:13:00.526Z,13.17
2023-01-12T15:15:51.113Z,13.10
2023-01-12T15:18:38.275Z,13.02
2023-01-12T15:21:35.807Z,12.89
2023-01-12T15:24:21.414Z,12.91
2023-01-12T15:27:01.922Z,12.84
2023-01-12T15:29:33.650Z,12.77
2023-01-12T15:32:01.856Z,12.74
2023-01-12T15:34:31.475Z,12.71
2023-01-12T15:36:59.694Z,12.67
2023-01-12T15:39:27.675Z,12.69
2023-01-12T15:42:13.868Z,12.71
2023-01-12T15:44:41.789Z,12.76
2023-01-12T15:47:12.800Z,12.76
2023-01-12T15:49:42.392Z,12.79
2023-01-12T15:52:14.185Z,12.85
2023-01-12T15:54:43.195Z,12.86
2023-01-12T15:57:13.213Z,12.76
2023-01-12T15:59:41.764Z,12.85
2023-01-12T16:02:25.979Z,12.89
2023-01-12T16:04:56.337Z,12.91
2023-01-12T16:07:24.688Z,12.91
2023-01-12T16:09:52.643Z,12.83
2023-01-12T16:12:20.519Z,12.92
2023-01-12T16:14:48.611Z,12.94
2023-01-12T16:17:17.851Z,12.85
2023-01-12T16:19:45.760Z,12.82
2023-01-12T16:22:21.229Z,12.77
2023-01-12T16:24:50.229Z,12.59
2023-01-12T16:27:19.102Z,12.71
2023-01-12T16:29:47.696Z,12.70
2023-01-12T16:32:16.317Z,12.70
2023-01-12T16:34:45.805Z,12.72
2023-01-12T16:37:16.593Z,12.66
2023-01-12T16:39:44.734Z,12.64
2023-01-12T16:42:13.248Z,12.64
2023-01-12T16:44:41.643Z,12.69
2023-01-12T16:47:13.000Z,12.75
2023-01-12T16:49:41.052Z,12.61
2023-01-12T16:52:10.886Z,12.52
2023-01-12T16:54:43.025Z,12.53
2023-01-12T16:57:11.178Z,12.54
2023-01-12T16:59:39.097Z,12.52
2023-01-12T17:02:08.212Z,12.46
2023-01-12T17:04:37.684Z,12.52
2023-01-12T17:07:06.884Z,12.29
2023-01-12T17:09:35.868Z,12.36
2023-01-12T17:12:06.167Z,12.38
2023-01-12T17:14:34.806Z,12.45
2023-01-12T17:17:04.643Z,12.57
2023-01-12T17:19:34.654Z,12.54
2023-01-12T17:22:03.012Z,12.56
2023-01-12T17:24:32.583Z,12.38
2023-01-12T17:27:01.077Z,12.49
2023-01-12T17:29:30.397Z,12.52
2023-01-12T17:32:04.035Z,12.44
2023-01-12T17:34:36.435Z,12.35
2023-01-12T17:37:08.270Z,12.30
2023-01-12T17:39:39.649Z,12.29
2023-01-12T17:42:25.182Z,12.31
2023-01-12T17:44:54.406Z,12.22
2023-01-12T17:47:22.361Z,12.27
2023-01-12T17:49:50.355Z,12.29
2023-01-12T17:52:18.457Z,12.26
2023-01-12T17:54:46.542Z,12.36
2023-01-12T17:57:15.915Z,12.35
2023-01-12T17:59:43.955Z,12.42
2023-01-12T18:02:15.203Z,12.36
2023-01-12T18:04:43.531Z,12.38
2023-01-12T18:07:11.466Z,12.47
2023-01-12T18:09:39.558Z,12.47
2023-01-12T18:12:07.912Z,12.38
2023-01-12T18:14:35.815Z,12.31
2023-01-12T18:17:03.725Z,12.27
2023-01-12T18:19:33.481Z,12.29
2023-01-12T18:22:05.912Z,12.30
2023-01-12T18:24:34.358Z,12.25
2023-01-12T18:27:02.795Z,12.29
2023-01-12T18:29:30.730Z,12.27
2023-01-12T18:31:58.889Z,12.27
2023-01-12T18:34:26.812Z,12.37
2023-01-12T18:36:56.242Z,12.35
2023-01-12T18:39:24.190Z,12.31
2023-01-12T18:42:09.483Z,12.30
2023-01-12T18:44:38.060Z,12.31
2023-01-12T18:47:23.773Z,12.32
2023-01-12T18:49:51.881Z,12.30
2023-01-12T18:52:53.118Z,12.30
2023-01-12T18:55:20.968Z,12.28
2023-01-12T18:57:48.940Z,12.29
2023-01-12T19:00:18.147Z,12.24
2023-01-12T19:02:47.264Z,12.16
2023-01-12T19:05:22.961Z,12.13
2023-01-12T19:08:04.612Z,12.10
2023-01-12T19:10:34.244Z,12.04
2023-01-12T19:13:19.538Z,12.07
2023-01-12T19:16:05.065Z,12.05
2023-01-12T19:18:36.540Z,12.03
2023-01-12T19:21:28.881Z,11.93
2023-01-12T19:24:15.902Z,12.03
2023-01-12T19:27:01.170Z,12.02
2023-01-12T19:29:29.288Z,11.96
2023-01-12T19:31:57.177Z,11.93
2023-01-12T19:34:25.830Z,11.98
2023-01-12T19:36:53.792Z,12.07
2023-01-12T19:39:34.375Z,11.95
2023-01-12T19:42:19.570Z,12.01
2023-01-12T19:44:47.503Z,12.03
2023-01-12T19:47:15.427Z,11.94
2023-01-12T19:49:45.516Z,11.98
2023-01-12T19:52:13.444Z,11.94
2023-01-12T19:54:42.674Z,11.98
2023-01-12T19:57:10.678Z,11.93
2023-01-12T19:59:38.544Z,11.94
2023-01-12T20:02:08.858Z,12.02
2023-01-12T20:04:37.657Z,12.03
2023-01-12T20:07:05.578Z,12.05
2023-01-12T20:09:34.057Z,12.14
2023-01-12T20:12:03.565Z,12.04
2023-01-12T20:14:32.054Z,12.05
2023-01-12T20:16:59.962Z,12.06
2023-01-12T20:19:30.154Z,12.07
2023-01-12T20:21:58.028Z,12.11
2023-01-12T20:24:26.220Z,12.04
2023-01-12T20:26:54.837Z,12.09
2023-01-12T20:29:24.420Z,11.99
2023-01-12T20:31:52.950Z,12.04
2023-01-12T20:34:21.577Z,12.04
2023-01-12T20:36:51.143Z,11.97
2023-01-12T20:39:19.681Z,11.92
2023-01-12T20:41:50.262Z,11.93
2023-01-12T20:44:20.191Z,11.95
2023-01-12T20:46:49.864Z,11.79
2023-01-12T20:49:19.210Z,11.74
2023-01-12T20:51:48.097Z,11.72
2023-01-12T20:54:17.106Z,11.71
2023-01-12T20:56:45.354Z,11.81
2023-01-12T20:59:14.247Z,11.90
2023-01-12T21:01:42.268Z,11.88
2023-01-12T21:04:11.627Z,11.93
2023-01-12T21:06:43.582Z,11.89
2023-01-12T21:09:11.514Z,11.88
2023-01-12T21:11:41.894Z,11.91
2023-01-12T21:14:10.075Z,11.74
2023-01-12T21:16:38.096Z,11.83
2023-01-12T21:19:07.650Z,11.75
2023-01-12T21:21:37.155Z,11.80
2023-01-12T21:24:05.419Z,11.88
2023-01-12T21:26:33.527Z,11.79
2023-01-12T21:29:01.872Z,11.87
2023-01-12T21:31:29.983Z,11.80
2023-01-12T21:33:57.797Z,11.90
2023-01-12T21:36:25.780Z,11.98
2023-01-12T21:38:55.422Z,11.92
2023-01-12T21:41:24.881Z,12.08
2023-01-12T21:43:52.975Z,12.09
2023-01-12T21:46:22.374Z,12.04
2023-01-12T21:48:50.192Z,12.07
2023-01-12T21:51:18.683Z,12.08
2023-01-12T21:53:46.557Z,12.01
2023-01-12T21:56:15.789Z,12.08
2023-01-12T21:58:43.679Z,12.07
2023-01-12T22:01:14.353Z,12.00
2023-01-12T22:03:42.696Z,12.08
2023-01-12T22:06:12.789Z,12.14
2023-01-12T22:08:42.695Z,12.08
2023-01-12T22:11:12.944Z,12.13
2023-01-12T22:13:45.458Z,12.04
2023-01-12T22:16:15.400Z,12.09
2023-01-12T22:18:46.983Z,12.15
2023-01-12T22:21:15.757Z,12.10
2023-01-12T22:23:44.329Z,12.14
2023-01-12T22:26:14.484Z,12.28
2023-01-12T22:28:49.386Z,12.30
2023-01-12T22:31:19.609Z,12.29
2023-01-12T22:33:57.628Z,12.16
2023-01-12T22:36:25.845Z,12.09
2023-01-12T22:38:53.733Z,12.09
2023-01-12T22:41:22.656Z,12.12
2023-01-12T22:43:53.213Z,12.03
2023-01-12T22:46:23.103Z,12.11
2023-01-12T22:48:51.586Z,12.16
2023-01-12T22:51:20.871Z,12.22
2023-01-12T22:53:49.276Z,12.17
2023-01-12T22:56:17.459Z,12.18
2023-01-12T22:58:47.627Z,12.15
2023-01-12T23:01:17.900Z,12.15
2023-01-12T23:03:47.195Z,12.19
2023-01-12T23:06:18.151Z,12.11
2023-01-12T23:08:46.591Z,12.10
2023-01-12T23:11:16.605Z,12.06
2023-01-12T23:13:46.373Z,12.12
2023-01-12T23:16:17.872Z,12.14
2023-01-12T23:18:47.817Z,12.20
2023-01-12T23:21:18.121Z,12.16
2023-01-12T23:23:48.129Z,12.21
2023-01-12T23:26:18.697Z,12.14
2023-01-12T23:28:48.698Z,12.07
2023-01-12T23:31:20.060Z,12.23
2023-01-12T23:33:48.705Z,12.30
2023-01-12T23:36:19.011Z,12.26
2023-01-12T23:38:47.117Z,12.27
2023-01-12T23:41:18.204Z,12.20
2023-01-12T23:43:46.837Z,12.26
2023-01-12T23:46:17.037Z,12.17
2023-01-12T23:48:46.384Z,12.18
2023-01-12T23:51:14.233Z,12.20
2023-01-12T23:53:42.619Z,12.16
2023-01-12T23:56:13.380Z,12.15
2023-01-12T23:58:41.847Z,12.04
